x

Molasses Reef, Fl (mlrf1) Weather Station

11:00am - Sat 24th Feb 2018 All times are EST. -5 hours from GMT.

  • Wind
    20mph, 21mph gusts
  • Sea Temp 78°f
  • Air Temp 76°f
  • Sea Pressure 1023.2mb
  • Molasses Reef, Fl
  • Molasses Reef, Fl

More Historic Weather Station data

Upgrade to MSW Pro to gain access to the past 30 days of data for over 8000 Wavebouys and Weather Stations around the globe.

Join

Comparision Forecast

View Surf forecast
   
Sat 02/24 11:00am 20 21 mph 1023.2mb 78f 76f
10:00am 17 20 mph 1023.2mb 78f 76f
9:00am 18 21 mph 1023mb 78f 76f
8:00am 22 24 mph 1022.5mb 78f 76f
7:00am 22 25 mph 1022.3mb 78f 76f
6:00am 21 23 mph 1021.9mb 78f 76f
4:00am 23 25 mph 1021.7mb 78f 76f
Fri 02/23 9:00pm 23 25 mph 1023.8mb 78f 75f
7:00pm 21 24 mph 1023.7mb 78f 76f
6:00pm 22 25 mph 1023.6mb 78f 76f
5:00pm 18 21 mph 1023.5mb 78f 77f
4:00pm 22 23 mph 1023.5mb 78f 76f
3:00pm 21 23 mph 1023.8mb 78f 76f
2:00pm 22 24 mph 1024.6mb 78f 76f
12:00pm 20 22 mph 1026.2mb 77f 76f
11:00am 20 22 mph 1026.8mb 77f 76f
10:00am 20 22 mph 1026.9mb 77f 76f
9:00am 18 21 mph 1026.8mb 77f 76f
8:00am 24 26 mph 1026.3mb 77f 76f
7:00am 23
mph
1025.6mb 77f 76f
6:00am 14 15 mph 1025.5mb 77f 73f
5:00am 17 20 mph 1024.9mb 77f 76f
4:00am 15 17 mph 1024.9mb 77f 76f
3:00am 20 21 mph 1025mb 77f 76f
2:00am 21 23 mph 1024.9mb 77f 76f
1:00am 18 22 mph 1025.6mb 77f 76f
12:00am 21 23 mph 1025.8mb 77f 76f
Thu 02/22 11:00pm 23 25 mph 1026.1mb 77f 76f
10:00pm 21 23 mph 1026.4mb 77f 76f
9:00pm 23 25 mph 1026mb 77f 76f
8:00pm 22 24 mph 1025.7mb 77f 76f
7:00pm 21 23 mph 1025.4mb 77f 76f
6:00pm 22 23 mph 1025.4mb 77f 76f
5:00pm 20 22 mph 1025.1mb 77f 76f
4:00pm 18 21 mph 1024.9mb 77f 76f
3:00pm 16 18 mph 1025.4mb 77f 77f
2:00pm 18 20 mph 1026mb 77f 77f
1:00pm 22 24 mph 1026.5mb 77f 76f
12:00pm 21 23 mph 1027.3mb 77f 76f
11:00am 22 23 mph 1027.7mb 77f 76f
10:00am 21 23 mph 1027.8mb 77f 76f
9:00am 24 25 mph 1027.3mb 77f 76f
8:00am 23 24 mph 1026.6mb 77f 76f
7:00am 24 28 mph 1025.9mb 77f 76f
5:00am 23 25 mph 1025mb 77f 76f
2:00am 23 25 mph 1025.4mb 77f 76f
1:00am 25 28 mph 1025.9mb 77f 76f
12:00am 25 29 mph 1026.1mb 77f 76f
Wed 02/21 11:00pm 25 28 mph 1026.3mb 77f 76f
10:00pm 26 30 mph 1026.3mb 77f 76f
9:00pm 26 29 mph 1026.1mb 77f 76f
8:00pm 25 28 mph 1026mb 77f 76f
7:00pm 23 26 mph 1025.6mb 77f 76f
6:00pm 23 26 mph 1025.3mb 77f 76f
5:00pm 23 25 mph 1025mb 77f 77f
4:00pm 23 26 mph 1025mb 77f 77f
3:00pm 23 25 mph 1025.4mb 77f 77f
2:00pm 22 24 mph 1025.8mb 77f 77f
1:00pm 24 26 mph 1026.3mb 77f 77f
12:00pm 22 23 mph 1027mb 77f 76f
11:00am 21 23 mph 1027.7mb 77f 76f
10:00am 22 24 mph 1027.6mb 77f 76f
9:00am 24 26 mph 1027.1mb 77f 77f
8:00am 23 25 mph 1026.7mb 77f 76f
7:00am 22 24 mph 1026.3mb 77f 76f
6:00am 24
mph
- - 76f
5:00am 21 23 mph 1025.4mb 77f 76f
4:00am 26 29 mph 1025.1mb 77f 76f
3:00am 22 24 mph 1025.5mb 77f 76f
2:00am 25 29 mph 1025.8mb 77f 76f
1:00am 28 30 mph 1026.1mb 77f 77f
12:00am 24 26 mph 1026.4mb 77f 77f
Tue 02/20 11:00pm 29 31 mph 1026.4mb 77f 77f
10:00pm 23 26 mph 1026.4mb 77f 78f
9:00pm 22 23 mph 1026.1mb 77f 78f
7:00pm 16 17 mph 1025.3mb 77f 77f
6:00pm 16 18 mph 1024.9mb 77f 78f